createdAt,value
2017-07-22T00:00:28.029Z,0
2017-07-22T00:01:37.639Z,0
2017-07-22T00:02:47.883Z,0
2017-07-22T00:03:58.105Z,0
2017-07-22T00:05:07.398Z,0
2017-07-22T00:06:17.315Z,0
2017-07-22T00:07:27.534Z,0
2017-07-22T00:08:37.170Z,0
2017-07-22T00:09:47.389Z,0
2017-07-22T00:10:57.607Z,0
2017-07-22T00:12:07.825Z,0
2017-07-22T00:13:18.204Z,0
2017-07-22T00:14:28.425Z,0
2017-07-22T00:15:38.658Z,0
2017-07-22T00:16:48.270Z,0
2017-07-22T00:17:58.185Z,0
2017-07-22T00:19:08.117Z,0
2017-07-22T00:20:17.401Z,0
2017-07-22T00:21:27.013Z,0
2017-07-22T00:22:37.232Z,0
2017-07-22T00:23:47.458Z,0
2017-07-22T00:24:57.690Z,0
2017-07-22T00:26:07.605Z,0
2017-07-22T00:27:17.832Z,0
2017-07-22T00:28:27.768Z,0
2017-07-22T00:29:37.691Z,0
2017-07-22T00:30:47.914Z,0
2017-07-22T00:31:58.151Z,0
2017-07-22T00:33:08.387Z,0
2017-07-22T00:34:18.305Z,0
2017-07-22T00:35:28.525Z,0
2017-07-22T00:36:38.799Z,0
2017-07-22T00:37:49.011Z,0
2017-07-22T00:38:58.623Z,0
2017-07-22T00:40:08.528Z,0
2017-07-22T00:41:18.449Z,0
2017-07-22T00:42:28.411Z,0
2017-07-22T00:43:38.323Z,0
2017-07-22T00:44:48.544Z,0
2017-07-22T00:45:57.861Z,0
2017-07-22T00:47:08.072Z,0
2017-07-22T00:48:17.684Z,0
2017-07-22T00:49:27.587Z,0
2017-07-22T00:50:37.199Z,0
2017-07-22T00:51:47.434Z,0
2017-07-22T00:52:57.685Z,0
2017-07-22T00:54:07.895Z,0
2017-07-22T00:55:17.815Z,0
2017-07-22T00:56:27.734Z,0
2017-07-22T00:57:37.349Z,0
2017-07-22T00:58:47.249Z,0
2017-07-22T00:59:57.469Z,0
2017-07-22T01:01:06.770Z,0
2017-07-22T01:02:16.998Z,0
2017-07-22T01:03:26.907Z,0
2017-07-22T01:04:36.819Z,0
2017-07-22T01:05:46.729Z,0
2017-07-22T01:06:56.950Z,0
2017-07-22T01:08:07.175Z,0
2017-07-22T01:09:17.387Z,0
2017-07-22T01:10:26.986Z,0
2017-07-22T01:11:36.900Z,0
2017-07-22T01:12:46.811Z,0
2017-07-22T01:13:56.734Z,0
2017-07-22T01:15:06.657Z,0
2017-07-22T01:16:15.944Z,0
2017-07-22T01:17:26.314Z,0
2017-07-22T01:18:35.921Z,0
2017-07-22T01:19:45.833Z,0
2017-07-22T01:20:56.057Z,0
2017-07-22T01:22:06.282Z,0
2017-07-22T01:23:16.224Z,0
2017-07-22T01:24:26.144Z,0
2017-07-22T01:25:36.365Z,0
2017-07-22T01:26:45.972Z,0
2017-07-22T01:27:55.933Z,0
2017-07-22T01:29:06.269Z,0
2017-07-22T01:30:16.494Z,0
2017-07-22T01:31:26.411Z,0
2017-07-22T01:32:36.332Z,0
2017-07-22T01:33:46.558Z,0
2017-07-22T01:34:56.463Z,0
2017-07-22T01:36:06.699Z,0
2017-07-22T01:37:16.921Z,0
2017-07-22T01:38:26.824Z,0
2017-07-22T01:39:37.035Z,0
2017-07-22T01:40:46.662Z,0
2017-07-22T01:41:56.878Z,0
2017-07-22T01:43:06.793Z,0
2017-07-22T01:44:16.404Z,0
2017-07-22T01:45:26.316Z,0
2017-07-22T01:46:35.915Z,0
2017-07-22T01:47:46.143Z,0
2017-07-22T01:48:56.058Z,0
2017-07-22T01:50:05.964Z,0
2017-07-22T01:51:15.872Z,0
2017-07-22T01:52:26.100Z,0
2017-07-22T01:53:36.322Z,0
2017-07-22T01:54:45.330Z,0
2017-07-22T01:55:55.254Z,0
2017-07-22T01:57:05.165Z,0
2017-07-22T01:58:15.379Z,0
2017-07-22T01:59:25.290Z,0
2017-07-22T02:00:35.206Z,0
2017-07-22T02:01:45.444Z,0
2017-07-22T02:02:55.674Z,0
2017-07-22T02:04:05.893Z,0
2017-07-22T02:05:16.117Z,0
2017-07-22T02:06:25.727Z,0
2017-07-22T02:07:35.362Z,0
2017-07-22T02:08:44.373Z,0
2017-07-22T02:09:54.286Z,0
2017-07-22T02:11:04.215Z,0
2017-07-22T02:12:14.135Z,0
2017-07-22T02:13:24.058Z,0
2017-07-22T02:14:34.287Z,0
2017-07-22T02:15:44.219Z,0
2017-07-22T02:16:54.445Z,0
2017-07-22T02:18:04.677Z,0
2017-07-22T02:19:14.610Z,0
2017-07-22T02:20:24.227Z,0
2017-07-22T02:21:33.222Z,0
2017-07-22T02:22:42.830Z,0
2017-07-22T02:23:52.761Z,0
2017-07-22T02:25:02.982Z,0
2017-07-22T02:26:12.610Z,0
2017-07-22T02:27:22.517Z,0
2017-07-22T02:28:32.836Z,0
2017-07-22T02:29:42.766Z,0
2017-07-22T02:30:52.470Z,0
2017-07-22T02:32:02.701Z,0
2017-07-22T02:33:12.623Z,0
2017-07-22T02:34:22.533Z,0
2017-07-22T02:35:32.138Z,0
2017-07-22T02:36:42.047Z,0
2017-07-22T02:37:51.965Z,0
2017-07-22T02:39:02.197Z,0
2017-07-22T02:40:12.113Z,0
2017-07-22T02:41:22.038Z,0
2017-07-22T02:42:32.295Z,0
2017-07-22T02:43:42.511Z,0
2017-07-22T02:44:52.126Z,0
2017-07-22T02:46:02.056Z,0
2017-07-22T02:47:12.282Z,0
2017-07-22T02:48:21.608Z,0
2017-07-22T02:49:31.833Z,0
2017-07-22T02:50:41.445Z,0
2017-07-22T02:51:51.670Z,0
2017-07-22T02:53:01.909Z,0
2017-07-22T02:54:11.823Z,0
2017-07-22T02:55:21.724Z,0
2017-07-22T02:56:31.947Z,0
2017-07-22T02:57:42.537Z,0
2017-07-22T02:58:52.151Z,0
2017-07-22T03:00:02.381Z,0
2017-07-22T03:01:12.301Z,0
2017-07-22T03:02:22.519Z,0
2017-07-22T03:03:32.144Z,0
2017-07-22T03:04:41.754Z,0
2017-07-22T03:05:51.970Z,0
2017-07-22T03:07:01.943Z,0
2017-07-22T03:08:12.160Z,0
2017-07-22T03:09:22.385Z,0
2017-07-22T03:10:32.300Z,0
2017-07-22T03:11:42.221Z,0
2017-07-22T03:12:52.447Z,0
2017-07-22T03:14:02.431Z,0
2017-07-22T03:15:12.347Z,0
2017-07-22T03:16:21.958Z,0
2017-07-22T03:17:32.180Z,0
2017-07-22T03:18:42.083Z,0
2017-07-22T03:19:51.991Z,0
2017-07-22T03:21:01.904Z,0
2017-07-22T03:22:11.823Z,4
2017-07-22T03:23:21.739Z,4
2017-07-22T03:24:31.654Z,4
2017-07-22T03:25:41.255Z,0
2017-07-22T03:26:51.173Z,4
2017-07-22T03:28:01.089Z,4
2017-07-22T03:29:11.313Z,8
2017-07-22T03:30:20.621Z,4
2017-07-22T03:31:30.233Z,4
2017-07-22T03:32:40.463Z,8
2017-07-22T03:33:50.724Z,8
2017-07-22T03:35:00.960Z,8
2017-07-22T03:36:11.179Z,8
2017-07-22T03:37:20.808Z,8
2017-07-22T03:38:31.028Z,12
2017-07-22T03:39:41.274Z,12
2017-07-22T03:40:51.186Z,12
2017-07-22T03:42:01.434Z,8
2017-07-22T03:43:11.050Z,12
2017-07-22T03:44:20.344Z,12
2017-07-22T03:45:30.263Z,20
2017-07-22T03:46:39.880Z,20
2017-07-22T03:47:49.187Z,24
2017-07-22T03:48:59.564Z,24
2017-07-22T03:50:09.784Z,28
2017-07-22T03:51:19.703Z,28
2017-07-22T03:52:29.642Z,36
2017-07-22T03:53:39.558Z,36
2017-07-22T03:54:49.474Z,40
2017-07-22T03:55:59.106Z,44
2017-07-22T03:57:08.736Z,44
2017-07-22T03:58:18.058Z,44
2017-07-22T03:59:27.966Z,44
2017-07-22T04:00:37.886Z,44
2017-07-22T04:01:47.493Z,36
2017-07-22T04:02:57.412Z,36
2017-07-22T04:04:07.336Z,32
2017-07-22T04:05:17.559Z,36
2017-07-22T04:06:27.210Z,36
2017-07-22T04:07:37.150Z,36
2017-07-22T04:08:47.055Z,44
2017-07-22T04:09:56.968Z,52
2017-07-22T04:11:06.576Z,56
2017-07-22T04:12:16.808Z,60
2017-07-22T04:13:26.711Z,60
2017-07-22T04:14:36.935Z,64
2017-07-22T04:15:47.201Z,68
2017-07-22T04:16:56.846Z,64
2017-07-22T04:18:07.064Z,56
2017-07-22T04:19:16.696Z,48
2017-07-22T04:20:26.001Z,48
2017-07-22T04:21:35.917Z,48
2017-07-22T04:22:45.529Z,56
2017-07-22T04:23:55.145Z,64
2017-07-22T04:25:05.059Z,64
2017-07-22T04:26:15.282Z,60
2017-07-22T04:27:24.901Z,48
2017-07-22T04:28:34.510Z,48
2017-07-22T04:29:44.740Z,56
2017-07-22T04:30:54.985Z,56
2017-07-22T04:32:04.903Z,64
2017-07-22T04:33:14.816Z,92
2017-07-22T04:34:24.756Z,132
2017-07-22T04:35:34.359Z,168
2017-07-22T04:36:44.578Z,220
2017-07-22T04:37:54.495Z,264
2017-07-22T04:39:04.722Z,284
2017-07-22T04:40:14.947Z,284
2017-07-22T04:41:24.258Z,320
2017-07-22T04:42:34.171Z,356
2017-07-22T04:43:44.096Z,400
2017-07-22T04:44:54.321Z,480
2017-07-22T04:46:03.936Z,508
2017-07-22T04:47:13.874Z,512
2017-07-22T04:48:23.809Z,560
2017-07-22T04:49:33.139Z,616
2017-07-22T04:50:43.373Z,716
2017-07-22T04:51:52.976Z,724
2017-07-22T04:53:02.633Z,772
2017-07-22T04:54:12.554Z,840
2017-07-22T04:55:22.772Z,888
2017-07-22T04:56:32.384Z,864
2017-07-22T04:57:42.000Z,856
2017-07-22T04:58:52.239Z,944
2017-07-22T05:00:02.163Z,1028
2017-07-22T05:01:12.087Z,1104
2017-07-22T05:02:22.034Z,1144
2017-07-22T05:03:32.272Z,1200
2017-07-22T05:04:42.198Z,1108
2017-07-22T05:05:51.795Z,1080
2017-07-22T05:07:01.399Z,1056
2017-07-22T05:08:11.639Z,1036
2017-07-22T05:09:21.566Z,1012
2017-07-22T05:10:31.187Z,984
2017-07-22T05:11:40.806Z,1028
2017-07-22T05:12:50.415Z,1172
2017-07-22T05:14:00.334Z,1152
2017-07-22T05:15:09.336Z,1136
2017-07-22T05:16:19.267Z,1104
2017-07-22T05:17:29.180Z,1040
2017-07-22T05:18:38.786Z,976
2017-07-22T05:19:48.697Z,716
2017-07-22T05:20:58.625Z,664
2017-07-22T05:22:07.930Z,588
2017-07-22T05:23:17.839Z,796
2017-07-22T05:24:27.457Z,1732
2017-07-22T05:25:37.380Z,1724
2017-07-22T05:26:47.615Z,1688
2017-07-22T05:27:56.932Z,1696
2017-07-22T05:29:06.230Z,832
2017-07-22T05:30:16.476Z,436
2017-07-22T05:31:26.395Z,420
2017-07-22T05:32:36.611Z,416
2017-07-22T05:33:46.528Z,444
2017-07-22T05:34:56.177Z,496
2017-07-22T05:36:05.806Z,544
2017-07-22T05:37:15.731Z,680
2017-07-22T05:38:25.653Z,764
2017-07-22T05:39:35.591Z,676
2017-07-22T05:40:45.198Z,740
2017-07-22T05:41:55.415Z,1032
2017-07-22T05:43:05.029Z,1136
2017-07-22T05:44:14.935Z,1024
2017-07-22T05:45:24.849Z,980
2017-07-22T05:46:34.771Z,956
2017-07-22T05:47:44.992Z,1040
2017-07-22T05:48:54.896Z,956
2017-07-22T05:50:04.230Z,2480
2017-07-22T05:51:14.150Z,776
2017-07-22T05:52:24.069Z,844
2017-07-22T05:53:34.003Z,1104
2017-07-22T05:54:44.245Z,740
2017-07-22T05:55:53.858Z,760
2017-07-22T05:57:04.082Z,964
2017-07-22T05:58:13.994Z,1204
2017-07-22T05:59:23.926Z,1656
2017-07-22T06:00:34.158Z,1584
2017-07-22T06:01:44.380Z,1432
2017-07-22T06:02:53.986Z,1652
2017-07-22T06:04:03.900Z,2608
2017-07-22T06:05:13.822Z,1468
2017-07-22T06:06:24.053Z,1116
2017-07-22T06:07:33.683Z,1140
2017-07-22T06:08:43.604Z,1824
2017-07-22T06:09:53.511Z,1140
2017-07-22T06:11:03.746Z,1048
2017-07-22T06:12:13.677Z,956
2017-07-22T06:13:23.591Z,1344
2017-07-22T06:14:33.832Z,4416
2017-07-22T06:15:43.758Z,1240
2017-07-22T06:16:54.000Z,1108
2017-07-22T06:18:03.619Z,1348
2017-07-22T06:19:13.528Z,1960
2017-07-22T06:20:23.454Z,1540
2017-07-22T06:21:33.059Z,1540
2017-07-22T06:22:43.299Z,1552
2017-07-22T06:23:52.928Z,1712
2017-07-22T06:25:03.153Z,2352
2017-07-22T06:26:13.069Z,2628
2017-07-22T06:27:23.293Z,2460
2017-07-22T06:28:33.504Z,2384
2017-07-22T06:29:43.723Z,2504
2017-07-22T06:30:53.645Z,2908
2017-07-22T06:32:02.953Z,2372
2017-07-22T06:33:12.562Z,2180
2017-07-22T06:34:22.772Z,2380
2017-07-22T06:35:33.030Z,2592
2017-07-22T06:36:43.299Z,2616
2017-07-22T06:37:53.248Z,2548
2017-07-22T06:39:03.632Z,2364
2017-07-22T06:40:13.879Z,2364
2017-07-22T06:41:24.163Z,2364
2017-07-22T06:42:34.790Z,2232
2017-07-22T06:43:44.386Z,2376
2017-07-22T06:44:54.740Z,2800
2017-07-22T06:46:04.736Z,2680
2017-07-22T06:47:15.435Z,2568
2017-07-22T06:48:25.604Z,2200
2017-07-22T06:49:35.848Z,2244
2017-07-22T06:50:45.798Z,2296
2017-07-22T06:51:56.231Z,2260
2017-07-22T06:53:06.437Z,2256
2017-07-22T06:54:16.354Z,2272
2017-07-22T06:55:25.660Z,2304
2017-07-22T06:56:35.873Z,2372
2017-07-22T06:57:45.176Z,2480
2017-07-22T06:58:54.790Z,2624
2017-07-22T07:00:05.013Z,2792
2017-07-22T07:01:14.920Z,3056
2017-07-22T07:02:24.876Z,4360
2017-07-22T07:03:34.166Z,7236
2017-07-22T07:04:44.080Z,9648
2017-07-22T07:05:53.991Z,10208
2017-07-22T07:07:03.588Z,10736
2017-07-22T07:08:13.835Z,11388
2017-07-22T07:09:23.435Z,15092
2017-07-22T07:10:33.365Z,26944
2017-07-22T07:11:43.306Z,35456
2017-07-22T07:12:53.218Z,35360
2017-07-22T07:14:02.846Z,36992
2017-07-22T07:15:12.754Z,39392
2017-07-22T07:16:22.973Z,38080
2017-07-22T07:17:33.207Z,38048
2017-07-22T07:18:43.129Z,39008
2017-07-22T07:19:53.054Z,37920
2017-07-22T07:21:03.040Z,37568
2017-07-22T07:22:12.957Z,40992
2017-07-22T07:23:22.890Z,44256
2017-07-22T07:24:32.543Z,45472
2017-07-22T07:25:42.472Z,48896
2017-07-22T07:26:52.401Z,45632
2017-07-22T07:28:02.326Z,44032
2017-07-22T07:29:11.956Z,43136
2017-07-22T07:30:21.873Z,43072
2017-07-22T07:31:31.869Z,45120
2017-07-22T07:32:41.952Z,44064
2017-07-22T07:33:51.575Z,42688
2017-07-22T07:35:01.506Z,41760
2017-07-22T07:36:11.432Z,42592
2017-07-22T07:37:21.346Z,27264
2017-07-22T07:38:31.282Z,14692
2017-07-22T07:39:41.509Z,45344
2017-07-22T07:40:50.810Z,47008
2017-07-22T07:42:00.512Z,8196
2017-07-22T07:43:10.120Z,4380
2017-07-22T07:44:20.042Z,4160
2017-07-22T07:45:30.278Z,5828
2017-07-22T07:46:40.500Z,4092
2017-07-22T07:47:50.966Z,3272
2017-07-22T07:49:00.878Z,3232
2017-07-22T07:50:10.789Z,3412
2017-07-22T07:51:20.714Z,7296
2017-07-22T07:52:30.950Z,7568
2017-07-22T07:53:40.248Z,32032
2017-07-22T07:54:50.162Z,6188
2017-07-22T07:56:00.090Z,16936
2017-07-22T07:57:10.128Z,3500
2017-07-22T07:58:19.751Z,5708
2017-07-22T07:59:29.676Z,11160
2017-07-22T08:00:39.595Z,7436
2017-07-22T08:01:49.525Z,3768
2017-07-22T08:02:59.749Z,3220
2017-07-22T08:04:10.009Z,3468
2017-07-22T08:05:19.624Z,17740
2017-07-22T08:06:29.853Z,38720
2017-07-22T08:07:40.080Z,49088
2017-07-22T08:08:49.388Z,39008
2017-07-22T08:09:59.623Z,13508
2017-07-22T08:11:09.530Z,17288
2017-07-22T08:12:19.755Z,16724
2017-07-22T08:13:29.983Z,30656
2017-07-22T08:14:39.911Z,52128
2017-07-22T08:15:50.145Z,54592
2017-07-22T08:17:00.381Z,33760
2017-07-22T08:18:10.291Z,46752
2017-07-22T08:19:20.227Z,44096
2017-07-22T08:20:30.149Z,21408
2017-07-22T08:21:40.076Z,54112
2017-07-22T08:22:49.695Z,4720
2017-07-22T08:23:59.933Z,10140
2017-07-22T08:25:09.854Z,4216
2017-07-22T08:26:19.767Z,2760
2017-07-22T08:27:30.024Z,2036
2017-07-22T08:28:39.797Z,2428
2017-07-22T08:29:49.715Z,9668
2017-07-22T08:30:59.330Z,9072
2017-07-22T08:32:09.553Z,54752
2017-07-22T08:33:19.488Z,52448
2017-07-22T08:34:29.413Z,41760
2017-07-22T08:35:39.331Z,51392
2017-07-22T08:36:49.558Z,48416
2017-07-22T08:37:59.469Z,50272
2017-07-22T08:39:09.084Z,55520
2017-07-22T08:40:19.314Z,62144
2017-07-22T08:41:28.942Z,60000
2017-07-22T08:42:39.185Z,53856
2017-07-22T08:43:48.784Z,37568
2017-07-22T08:44:59.015Z,56736
2017-07-22T08:46:08.945Z,56384
2017-07-22T08:47:18.582Z,18420
2017-07-22T08:48:28.499Z,7880
2017-07-22T08:49:38.460Z,56416
2017-07-22T08:50:48.073Z,6060
2017-07-22T08:51:57.693Z,3180
2017-07-22T08:53:07.952Z,9796
2017-07-22T08:54:17.878Z,55648
2017-07-22T08:55:27.490Z,9268
2017-07-22T08:56:37.111Z,55936
2017-07-22T08:57:47.054Z,7020
2017-07-22T08:58:56.989Z,21920
2017-07-22T09:00:06.936Z,5840
2017-07-22T09:01:16.897Z,2840
2017-07-22T09:02:27.117Z,2588
2017-07-22T09:03:37.045Z,6192
2017-07-22T09:04:47.261Z,5872
2017-07-22T09:05:57.477Z,5628
2017-07-22T09:07:07.398Z,5512
2017-07-22T09:08:17.614Z,5232
2017-07-22T09:09:27.539Z,5088
2017-07-22T09:10:37.786Z,3672
2017-07-22T09:11:47.705Z,3744
2017-07-22T09:12:57.951Z,3056
2017-07-22T09:14:07.885Z,4196
2017-07-22T09:15:18.121Z,3852
2017-07-22T09:16:27.733Z,3240
2017-07-22T09:17:37.995Z,2876
2017-07-22T09:18:47.950Z,2828
2017-07-22T09:19:57.858Z,2696
2017-07-22T09:21:07.767Z,2232
2017-07-22T09:22:17.993Z,2112
2017-07-22T09:23:27.915Z,2140
2017-07-22T09:24:37.848Z,3672
2017-07-22T09:25:47.463Z,3148
2017-07-22T09:26:57.395Z,2852
2017-07-22T09:28:07.022Z,2120
2017-07-22T09:29:17.266Z,2372
2017-07-22T09:30:27.194Z,2316
2017-07-22T09:31:37.119Z,1784
2017-07-22T09:32:47.040Z,1536
2017-07-22T09:33:56.965Z,2016
2017-07-22T09:35:07.198Z,2984
2017-07-22T09:36:17.129Z,3472
2017-07-22T09:37:27.377Z,3352
2017-07-22T09:38:37.643Z,2632
2017-07-22T09:39:47.870Z,3096
2017-07-22T09:40:58.099Z,3456
2017-07-22T09:42:07.706Z,2924
2017-07-22T09:43:17.321Z,2116
2017-07-22T09:44:27.247Z,2460
2017-07-22T09:45:37.160Z,2992
2017-07-22T09:46:47.079Z,3476
2017-07-22T09:47:57.309Z,3104
2017-07-22T09:49:07.534Z,2532
2017-07-22T09:50:17.790Z,2816
2017-07-22T09:51:27.396Z,2740
2017-07-22T09:52:37.312Z,2212
2017-07-22T09:53:47.564Z,2020
2017-07-22T09:57:30.154Z,2244
2017-07-22T09:58:39.155Z,2480
2017-07-22T09:59:49.080Z,2972
2017-07-22T10:00:59.006Z,2936
2017-07-22T10:02:08.928Z,2880
2017-07-22T10:03:18.857Z,3064
2017-07-22T10:04:28.788Z,2952
2017-07-22T10:05:38.717Z,3468
2017-07-22T10:06:48.945Z,3080
2017-07-22T10:07:58.873Z,2928
2017-07-22T10:09:08.807Z,2276
2017-07-22T10:10:19.037Z,1960
2017-07-22T10:11:28.351Z,1796
2017-07-22T10:12:37.960Z,1784
2017-07-22T10:13:47.260Z,1688
2017-07-22T10:14:57.178Z,1680
2017-07-22T10:16:07.104Z,1712
2017-07-22T10:17:16.716Z,1700
2017-07-22T10:18:26.951Z,2012
2017-07-22T10:19:37.183Z,1828
2017-07-22T10:20:47.107Z,1620
2017-07-22T10:21:57.033Z,1556
2017-07-22T10:23:06.640Z,1736
2017-07-22T10:24:16.552Z,1964
2017-07-22T10:25:26.474Z,1836
2017-07-22T10:26:36.398Z,1748
2017-07-22T10:27:46.334Z,1932
2017-07-22T10:28:56.283Z,1800
2017-07-22T10:30:06.514Z,1732
2017-07-22T10:31:16.755Z,1604
2017-07-22T10:32:26.965Z,1788
2017-07-22T10:33:36.890Z,1464
2017-07-22T10:34:47.116Z,1680
2017-07-22T10:35:57.042Z,1288
2017-07-22T10:37:07.273Z,1648
2017-07-22T10:38:16.888Z,1748
2017-07-22T10:39:27.128Z,1556
2017-07-22T10:40:37.069Z,1692
2017-07-22T10:41:47.003Z,1972
2017-07-22T10:42:56.917Z,2376
2017-07-22T10:44:06.841Z,2148
2017-07-22T10:45:16.763Z,2092
2017-07-22T10:46:26.684Z,2180
2017-07-22T10:47:36.920Z,2000
2017-07-22T10:48:47.139Z,1920
2017-07-22T10:49:57.063Z,1692
2017-07-22T10:51:06.996Z,1420
2017-07-22T10:52:16.600Z,1452
2017-07-22T10:53:26.823Z,1408
2017-07-22T10:54:35.839Z,1540
2017-07-22T10:55:46.085Z,1600
2017-07-22T10:56:56.315Z,1412
2017-07-22T10:58:06.248Z,1372
2017-07-22T10:59:15.872Z,1564
2017-07-22T11:00:25.506Z,1180
2017-07-22T11:01:35.755Z,860
2017-07-22T11:02:45.054Z,644
2017-07-22T11:03:55.290Z,576
2017-07-22T11:05:05.527Z,532
2017-07-22T11:06:15.441Z,588
2017-07-22T11:07:25.675Z,728
2017-07-22T11:08:35.597Z,976
2017-07-22T11:09:45.839Z,2052
2017-07-22T11:10:55.759Z,2244
2017-07-22T11:12:06.005Z,2024
2017-07-22T11:13:15.315Z,2056
2017-07-22T11:14:25.532Z,2000
2017-07-22T11:15:34.842Z,2040
2017-07-22T11:16:45.103Z,1784
2017-07-22T11:17:55.331Z,1580
2017-07-22T11:19:05.291Z,1416
2017-07-22T11:20:14.903Z,1436
2017-07-22T11:21:24.834Z,1404
2017-07-22T11:22:34.749Z,1816
2017-07-22T11:23:44.663Z,1984
2017-07-22T11:24:54.278Z,1744
2017-07-22T11:26:03.887Z,1844
2017-07-22T11:27:13.809Z,1964
2017-07-22T11:28:23.117Z,1900
2017-07-22T11:29:32.717Z,1652
2017-07-22T11:30:42.948Z,1288
2017-07-22T11:31:53.185Z,1108
2017-07-22T11:33:02.813Z,1056
2017-07-22T11:34:13.038Z,940
2017-07-22T11:35:22.955Z,952
2017-07-22T11:36:32.567Z,1016
2017-07-22T11:37:41.866Z,1324
2017-07-22T11:38:51.778Z,1136
2017-07-22T11:40:02.008Z,1384
2017-07-22T11:41:11.619Z,1612
2017-07-22T11:42:21.551Z,2080
2017-07-22T11:43:31.166Z,2324
2017-07-22T11:44:40.782Z,2600
2017-07-22T11:45:50.400Z,2568
2017-07-22T11:47:00.024Z,2436
2017-07-22T11:48:10.271Z,2120
2017-07-22T11:49:19.570Z,1716
2017-07-22T11:50:29.486Z,1320
2017-07-22T11:51:39.100Z,1188
2017-07-22T11:52:49.013Z,1060
2017-07-22T11:53:58.989Z,1088
2017-07-22T11:55:08.921Z,1148
2017-07-22T11:56:18.224Z,1136
2017-07-22T11:57:28.444Z,1180
2017-07-22T11:58:38.062Z,1348
2017-07-22T11:59:47.983Z,1316
2017-07-22T12:00:57.900Z,1184
2017-07-22T12:02:07.508Z,1300
2017-07-22T12:03:17.418Z,1352
2017-07-22T12:04:27.638Z,1548
2017-07-22T12:05:37.874Z,1408
2017-07-22T12:06:48.104Z,1248
2017-07-22T12:07:57.709Z,1008
2017-07-22T12:09:07.014Z,948
2017-07-22T12:10:16.930Z,960
2017-07-22T12:11:26.855Z,1036
2017-07-22T12:12:36.773Z,948
2017-07-22T12:13:46.087Z,912
2017-07-22T12:14:56.006Z,844
2017-07-22T12:16:05.922Z,920
2017-07-22T12:17:15.849Z,888
2017-07-22T12:18:25.472Z,828
2017-07-22T12:19:35.699Z,740
2017-07-22T12:20:45.629Z,700
2017-07-22T12:21:55.535Z,932
2017-07-22T12:23:05.781Z,1156
2017-07-22T12:24:16.022Z,1556
2017-07-22T12:25:25.955Z,1908
2017-07-22T12:26:35.873Z,1780
2017-07-22T12:27:45.786Z,1400
2017-07-22T12:28:56.167Z,1340
2017-07-22T12:30:05.215Z,1304
2017-07-22T12:31:15.133Z,1216
2017-07-22T12:32:24.746Z,1132
2017-07-22T12:33:34.698Z,1100
2017-07-22T12:34:44.317Z,1192
2017-07-22T12:35:53.944Z,1252
2017-07-22T12:37:04.196Z,1232
2017-07-22T12:38:13.814Z,1240
2017-07-22T12:39:24.044Z,1380
2017-07-22T12:40:34.375Z,1496
2017-07-22T12:41:44.287Z,1544
2017-07-22T12:42:53.909Z,1304
2017-07-22T12:44:03.556Z,1048
2017-07-22T12:45:13.794Z,952
2017-07-22T12:46:23.721Z,880
2017-07-22T12:47:33.962Z,832
2017-07-22T12:48:43.908Z,860
2017-07-22T12:49:53.534Z,1052
2017-07-22T12:51:03.457Z,1016
2017-07-22T12:52:13.379Z,996
2017-07-22T12:53:22.990Z,1052
2017-07-22T12:54:32.598Z,1100
2017-07-22T12:55:41.601Z,912
2017-07-22T12:56:51.509Z,840
2017-07-22T12:58:01.133Z,924
2017-07-22T12:59:11.367Z,744
2017-07-22T13:00:21.601Z,848
2017-07-22T13:01:31.532Z,676
2017-07-22T13:02:41.744Z,664
2017-07-22T13:03:51.656Z,792
2017-07-22T13:05:01.908Z,880
2017-07-22T13:06:11.846Z,912
2017-07-22T13:07:21.762Z,852
2017-07-22T13:08:32.013Z,948
2017-07-22T13:09:41.653Z,1124
2017-07-22T13:11:23.653Z,1572
2017-07-22T13:12:33.264Z,1596
2017-07-22T13:13:43.496Z,1544
2017-07-22T13:14:53.852Z,1452
2017-07-22T13:16:04.084Z,1480
2017-07-22T13:17:14.306Z,1424
2017-07-22T13:18:24.528Z,1500
2017-07-22T13:19:34.173Z,1364
2017-07-22T13:20:44.101Z,1392
2017-07-22T13:21:53.725Z,1452
2017-07-22T13:23:03.641Z,1240
2017-07-22T13:24:13.567Z,1296
2017-07-22T13:25:23.180Z,1184
2017-07-22T13:26:33.550Z,1124
2017-07-22T13:27:43.165Z,1108
2017-07-22T13:28:53.475Z,1228
2017-07-22T13:30:03.710Z,1304
2017-07-22T13:31:13.626Z,1244
2017-07-22T13:32:23.235Z,1432
2017-07-22T13:33:32.839Z,1232
2017-07-22T13:34:42.452Z,1228
2017-07-22T13:35:52.071Z,912
2017-07-22T13:37:02.306Z,868
2017-07-22T13:38:11.361Z,928
2017-07-22T13:39:21.280Z,808
2017-07-22T13:40:31.197Z,832
2017-07-22T13:41:41.428Z,848
2017-07-22T13:42:51.658Z,960
2017-07-22T13:44:02.039Z,1152
2017-07-22T13:45:11.963Z,1292
2017-07-22T13:46:22.196Z,1088
2017-07-22T13:47:32.420Z,1024
2017-07-22T13:48:41.725Z,1128
2017-07-22T13:49:52.249Z,1256
2017-07-22T13:51:02.469Z,1292
2017-07-22T13:52:12.698Z,1380
2017-07-22T13:53:22.916Z,1296
2017-07-22T13:54:33.140Z,1196
2017-07-22T13:55:43.376Z,1288
2017-07-22T13:56:52.680Z,1228
2017-07-22T13:58:02.599Z,1108
2017-07-22T13:59:12.517Z,1024
2017-07-22T14:00:22.128Z,956
2017-07-22T14:01:32.084Z,940
2017-07-22T14:02:41.688Z,920
2017-07-22T14:03:52.293Z,900
2017-07-22T14:05:02.533Z,912
2017-07-22T14:06:12.776Z,904
2017-07-22T14:07:22.689Z,840
2017-07-22T14:08:32.604Z,900
2017-07-22T14:09:42.234Z,824
2017-07-22T14:10:52.477Z,1000
2017-07-22T14:12:02.382Z,1148
2017-07-22T14:13:12.014Z,1012
2017-07-22T14:14:22.242Z,780
2017-07-22T14:15:32.459Z,748
2017-07-22T14:16:42.672Z,812
2017-07-22T14:17:52.897Z,776
2017-07-22T14:19:02.662Z,948
2017-07-22T14:20:12.902Z,948
2017-07-22T14:21:23.133Z,1004
2017-07-22T14:22:33.048Z,1068
2017-07-22T14:23:43.276Z,1140
2017-07-22T14:24:53.196Z,1164
2017-07-22T14:26:03.433Z,1188
2017-07-22T14:27:13.356Z,1188
2017-07-22T14:28:23.273Z,1212
2017-07-22T14:29:33.196Z,1364
2017-07-22T14:30:43.426Z,1384
2017-07-22T14:31:53.039Z,1376
2017-07-22T14:33:02.339Z,1280
2017-07-22T14:34:12.255Z,1068
2017-07-22T14:35:22.481Z,992
2017-07-22T14:36:31.893Z,1036
2017-07-22T14:37:41.521Z,1068
2017-07-22T14:38:51.742Z,1224
2017-07-22T14:40:01.972Z,1396
2017-07-22T14:41:11.902Z,1420
2017-07-22T14:42:21.199Z,1304
2017-07-22T14:43:30.835Z,1472
2017-07-22T14:44:40.787Z,1468
2017-07-22T14:45:50.707Z,1256
2017-07-22T14:47:00.609Z,1136
2017-07-22T14:48:11.200Z,956
2017-07-22T14:49:21.115Z,1004
2017-07-22T14:50:31.352Z,1232
2017-07-22T14:51:41.576Z,1436
2017-07-22T14:52:51.506Z,1244
2017-07-22T14:54:01.719Z,1164
2017-07-22T14:55:11.330Z,1100
2017-07-22T14:56:21.272Z,1128
2017-07-22T14:57:31.542Z,1132
2017-07-22T14:58:41.475Z,1124
2017-07-22T14:59:52.153Z,892
2017-07-22T15:01:02.076Z,936
2017-07-22T15:02:11.685Z,756
2017-07-22T15:03:21.313Z,764
2017-07-22T15:04:31.227Z,872
2017-07-22T15:05:40.822Z,752
2017-07-22T15:06:50.425Z,876
2017-07-22T15:08:00.635Z,848
2017-07-22T15:09:10.558Z,688
2017-07-22T15:10:20.484Z,844
2017-07-22T15:11:30.504Z,876
2017-07-22T15:12:40.120Z,848
2017-07-22T15:13:50.038Z,808
2017-07-22T15:14:59.652Z,732
2017-07-22T15:16:09.574Z,760
2017-07-22T15:17:19.295Z,736
2017-07-22T15:18:28.930Z,748
2017-07-22T15:19:38.549Z,764
2017-07-22T15:20:48.767Z,760
2017-07-22T15:21:58.693Z,596
2017-07-22T15:23:09.085Z,556
2017-07-22T15:24:19.327Z,556
2017-07-22T15:25:29.607Z,572
2017-07-22T15:26:39.539Z,568
2017-07-22T15:27:49.446Z,612
2017-07-22T15:28:59.514Z,592
2017-07-22T15:30:09.735Z,756
2017-07-22T15:31:19.652Z,816
2017-07-22T15:32:29.257Z,848
2017-07-22T15:33:39.171Z,868
2017-07-22T15:34:49.238Z,764
2017-07-22T15:35:58.854Z,868
2017-07-22T15:37:08.788Z,872
2017-07-22T15:38:19.041Z,924
2017-07-22T15:39:28.678Z,980
2017-07-22T15:40:38.283Z,904
2017-07-22T15:41:48.209Z,824
2017-07-22T15:42:58.449Z,844
2017-07-22T15:44:07.758Z,776
2017-07-22T15:45:17.388Z,760
2017-07-22T15:46:27.385Z,640
2017-07-22T15:47:37.026Z,616
2017-07-22T15:48:47.264Z,580
2017-07-22T15:49:57.491Z,596
2017-07-22T15:51:07.122Z,620
2017-07-22T15:52:17.337Z,656
2017-07-22T15:53:26.674Z,708
2017-07-22T15:54:36.922Z,736
2017-07-22T15:55:47.538Z,792
2017-07-22T15:56:57.475Z,792
2017-07-22T15:58:07.873Z,684
2017-07-22T15:59:17.480Z,620
2017-07-22T16:00:27.109Z,616
2017-07-22T16:01:37.340Z,756
2017-07-22T16:02:47.566Z,772